createdAt,value
2022-09-23T00:01:03.680Z,2.50
2022-09-23T00:03:31.875Z,2.65
2022-09-23T00:06:00.637Z,2.60
2022-09-23T00:08:27.498Z,2.75
2022-09-23T00:10:54.543Z,3.28
2022-09-23T00:13:21.859Z,3.15
2022-09-23T00:15:48.609Z,3.30
2022-09-23T00:18:15.378Z,3.10
2022-09-23T00:20:42.380Z,3.67
2022-09-23T00:23:09.182Z,3.45
2022-09-23T00:25:35.911Z,3.50
2022-09-23T00:28:03.453Z,3.25
2022-09-23T00:30:30.413Z,2.92
2022-09-23T00:32:57.245Z,3.10
2022-09-23T00:35:24.225Z,2.42
2022-09-23T00:37:51.037Z,2.53
2022-09-23T00:40:18.062Z,2.40
2022-09-23T00:42:49.626Z,2.47
2022-09-23T00:45:16.961Z,2.50
2022-09-23T00:48:02.989Z,2.60
2022-09-23T00:50:40.108Z,2.28
2022-09-23T00:53:09.949Z,2.22
2022-09-23T00:55:47.207Z,2.40
2022-09-23T00:58:16.392Z,2.55
2022-09-23T01:00:43.106Z,2.40
2022-09-23T01:03:10.859Z,2.67
2022-09-23T01:05:38.903Z,2.90
2022-09-23T01:08:07.581Z,2.63
2022-09-23T01:10:43.660Z,2.53
2022-09-23T01:13:24.920Z,2.58
2022-09-23T01:16:32.819Z,2.40
2022-09-23T01:19:30.021Z,2.80
2022-09-23T01:22:19.758Z,2.25
2022-09-23T01:25:27.599Z,2.13
2022-09-23T01:28:16.277Z,2.90
2022-09-23T01:30:46.385Z,2.45
2022-09-23T01:33:18.969Z,2.20
2022-09-23T01:36:01.018Z,2.05
2022-09-23T01:38:38.504Z,2.20
2022-09-23T01:41:13.787Z,2.17
2022-09-23T01:44:07.089Z,2.00
2022-09-23T01:46:42.223Z,2.20
2022-09-23T01:49:19.638Z,2.30
2022-09-23T01:52:17.326Z,2.22
2022-09-23T01:54:51.491Z,2.60
2022-09-23T01:57:29.037Z,2.30
2022-09-23T02:00:00.844Z,2.50
2022-09-23T02:02:32.636Z,2.60
2022-09-23T02:05:15.093Z,2.60
2022-09-23T02:07:46.286Z,2.50
2022-09-23T02:10:20.319Z,2.67
2022-09-23T02:12:49.977Z,2.40
2022-09-23T02:15:20.206Z,2.20
2022-09-23T02:17:54.912Z,2.00
2022-09-23T02:20:28.480Z,1.98
2022-09-23T02:23:03.979Z,1.88
2022-09-23T02:25:38.051Z,1.40
2022-09-23T02:28:26.091Z,1.60
2022-09-23T02:31:02.463Z,1.38
2022-09-23T02:33:36.659Z,1.42
2022-09-23T02:36:18.193Z,1.60
2022-09-23T02:38:47.290Z,1.50
2022-09-23T02:41:23.302Z,1.30
2022-09-23T02:43:56.655Z,1.23
2022-09-23T02:46:23.923Z,1.60
2022-09-23T02:48:53.966Z,1.60
2022-09-23T02:51:20.708Z,1.27
2022-09-23T02:53:48.104Z,1.00
2022-09-23T02:56:20.415Z,1.20
2022-09-23T02:58:48.870Z,1.20
2022-09-23T03:01:53.119Z,1.40
2022-09-23T03:04:43.011Z,1.50
2022-09-23T03:07:35.891Z,1.45
2022-09-23T03:10:26.659Z,1.40
2022-09-23T03:13:14.262Z,1.27
2022-09-23T03:15:48.806Z,1.30
2022-09-23T03:18:35.224Z,1.02
2022-09-23T03:21:06.358Z,1.00
2022-09-23T03:23:37.339Z,1.10
2022-09-23T03:26:23.729Z,1.30
2022-09-23T03:28:51.039Z,1.17
2022-09-23T03:31:18.228Z,1.40
2022-09-23T03:33:48.774Z,1.30
2022-09-23T03:36:36.750Z,1.40
2022-09-23T03:39:07.002Z,1.58
2022-09-23T03:41:39.154Z,1.60
2022-09-23T03:44:08.449Z,1.50
2022-09-23T03:46:36.348Z,1.60
2022-09-23T03:49:09.728Z,1.50
2022-09-23T03:51:36.488Z,1.70
2022-09-23T03:54:03.339Z,1.77
2022-09-23T03:56:30.045Z,1.83
2022-09-23T03:58:56.780Z,1.83
2022-09-23T04:01:23.746Z,1.75
2022-09-23T04:03:52.199Z,1.90
2022-09-23T04:06:19.527Z,1.75
2022-09-23T04:08:46.130Z,1.73
2022-09-23T04:11:12.817Z,1.75
2022-09-23T04:13:42.376Z,1.80
2022-09-23T04:16:09.116Z,1.77
2022-09-23T04:18:35.818Z,2.30
2022-09-23T04:21:02.700Z,2.25
2022-09-23T04:23:29.313Z,2.58
2022-09-23T04:25:55.984Z,3.15
2022-09-23T04:28:23.120Z,3.58
2022-09-23T04:30:49.885Z,3.97
2022-09-23T04:33:17.376Z,4.07
2022-09-23T04:35:44.121Z,4.35
2022-09-23T04:38:12.421Z,4.40
2022-09-23T04:40:39.391Z,4.50
2022-09-23T04:43:07.812Z,4.07
2022-09-23T04:45:36.672Z,4.78
2022-09-23T04:48:04.154Z,4.93
2022-09-23T04:50:34.075Z,4.22
2022-09-23T04:53:01.054Z,3.85
2022-09-23T04:55:27.895Z,3.88
2022-09-23T04:57:54.907Z,4.10
2022-09-23T05:00:23.417Z,3.67
2022-09-23T05:02:50.903Z,3.38
2022-09-23T05:05:22.523Z,3.20
2022-09-23T05:07:49.616Z,3.50
2022-09-23T05:10:16.531Z,3.30
2022-09-23T05:12:43.235Z,3.40
2022-09-23T05:15:10.040Z,3.92
2022-09-23T05:17:37.545Z,3.80
2022-09-23T05:20:04.835Z,3.42
2022-09-23T05:22:31.830Z,3.40
2022-09-23T05:25:00.464Z,3.50
2022-09-23T05:27:27.319Z,3.60
2022-09-23T05:29:54.230Z,3.25
2022-09-23T05:32:22.080Z,3.42
2022-09-23T05:34:48.954Z,4.00
2022-09-23T05:37:15.614Z,3.40
2022-09-23T05:39:42.244Z,3.78
2022-09-23T05:42:09.511Z,3.10
2022-09-23T05:44:36.193Z,3.17
2022-09-23T05:47:02.974Z,3.13
2022-09-23T05:49:48.630Z,3.22
2022-09-23T05:52:17.386Z,3.55
2022-09-23T05:54:44.158Z,2.72
2022-09-23T05:57:10.899Z,2.75
2022-09-23T05:59:38.247Z,2.90
2022-09-23T06:02:05.050Z,2.88
2022-09-23T06:04:31.862Z,4.00
2022-09-23T06:07:02.916Z,3.95
2022-09-23T06:09:35.609Z,4.05
2022-09-23T06:12:04.647Z,4.78
2022-09-23T06:14:31.267Z,4.95
2022-09-23T06:16:58.177Z,5.30
2022-09-23T06:19:25.116Z,4.93
2022-09-23T06:21:51.869Z,5.50
2022-09-23T06:24:22.117Z,4.95
2022-09-23T06:26:50.514Z,4.53
2022-09-23T06:29:18.373Z,4.38
2022-09-23T06:31:45.242Z,4.38
2022-09-23T06:34:14.413Z,4.15
2022-09-23T06:36:46.245Z,4.47
2022-09-23T06:39:14.686Z,4.50
2022-09-23T06:41:41.382Z,4.55
2022-09-23T06:44:08.248Z,4.05
2022-09-23T06:46:37.052Z,4.57
2022-09-23T06:49:03.801Z,4.40
2022-09-23T06:51:30.598Z,5.00
2022-09-23T06:53:57.285Z,4.93
2022-09-23T06:56:24.498Z,4.70
2022-09-23T06:58:52.609Z,4.68
2022-09-23T07:01:20.066Z,5.00
2022-09-23T07:03:50.291Z,6.15
2022-09-23T07:06:17.645Z,5.85
2022-09-23T07:08:47.181Z,4.95
2022-09-23T07:11:15.092Z,5.22
2022-09-23T07:13:42.847Z,5.35
2022-09-23T07:16:11.190Z,4.97
2022-09-23T07:18:38.511Z,4.75
2022-09-23T07:21:18.849Z,4.60
2022-09-23T07:23:47.665Z,4.97
2022-09-23T07:26:16.231Z,4.55
2022-09-23T07:28:43.585Z,4.50
2022-09-23T07:31:13.158Z,4.45
2022-09-23T07:33:44.450Z,4.43
2022-09-23T07:36:13.547Z,4.50
2022-09-23T07:38:45.205Z,4.20
2022-09-23T07:41:14.771Z,4.38
2022-09-23T07:43:41.622Z,3.92
2022-09-23T07:46:11.977Z,4.60
2022-09-23T07:48:39.486Z,4.30
2022-09-23T07:51:17.375Z,4.18
2022-09-23T07:53:47.689Z,4.57
2022-09-23T07:56:14.423Z,4.78
2022-09-23T07:58:41.029Z,5.60
2022-09-23T08:01:10.501Z,5.47
2022-09-23T08:03:38.002Z,5.78
2022-09-23T08:06:07.401Z,5.50
2022-09-23T08:08:35.904Z,5.18
2022-09-23T08:11:07.792Z,5.00
2022-09-23T08:13:35.141Z,5.38
2022-09-23T08:16:02.306Z,7.35
2022-09-23T08:18:29.147Z,9.27
2022-09-23T08:20:56.007Z,6.85
2022-09-23T08:23:23.358Z,7.18
2022-09-23T08:25:59.754Z,5.95
2022-09-23T08:28:27.124Z,4.65
2022-09-23T08:30:53.829Z,4.25
2022-09-23T08:33:23.381Z,4.20
2022-09-23T08:35:50.575Z,4.32
2022-09-23T08:38:17.496Z,4.63
2022-09-23T08:40:48.979Z,4.88
2022-09-23T08:43:25.925Z,4.80
2022-09-23T08:45:53.637Z,4.32
2022-09-23T08:48:36.192Z,4.30
2022-09-23T08:51:06.317Z,4.60
2022-09-23T08:53:36.328Z,4.70
2022-09-23T08:56:12.489Z,3.90
2022-09-23T08:59:33.871Z,3.78
2022-09-23T09:02:06.754Z,5.07
2022-09-23T09:04:41.436Z,3.22
2022-09-23T09:07:38.041Z,2.75
2022-09-23T09:10:11.999Z,2.90
2022-09-23T09:12:50.685Z,3.22
2022-09-23T09:15:24.856Z,2.92
2022-09-23T09:18:07.982Z,3.00
2022-09-23T09:20:57.563Z,2.42
2022-09-23T09:23:33.284Z,2.50
2022-09-23T09:26:03.196Z,2.72
2022-09-23T09:28:39.658Z,2.70
2022-09-23T09:31:33.192Z,2.60
2022-09-23T09:34:26.512Z,2.83
2022-09-23T09:37:23.929Z,2.70
2022-09-23T09:39:50.897Z,2.78
2022-09-23T09:42:35.967Z,2.45
2022-09-23T09:45:06.188Z,2.45
2022-09-23T09:47:56.887Z,2.67
2022-09-23T09:50:50.116Z,2.55
2022-09-23T09:53:27.639Z,2.72
2022-09-23T09:56:23.222Z,2.67
2022-09-23T09:58:53.800Z,2.50
2022-09-23T10:01:24.140Z,2.30
2022-09-23T10:03:55.589Z,2.53
2022-09-23T10:06:32.698Z,2.63
2022-09-23T10:09:19.519Z,2.80
2022-09-23T10:12:16.019Z,2.63
2022-09-23T10:14:43.416Z,2.50
2022-09-23T10:17:32.708Z,2.03
2022-09-23T10:20:01.734Z,2.53
2022-09-23T10:22:32.971Z,2.20
2022-09-23T10:25:07.636Z,2.38
2022-09-23T10:27:36.510Z,2.40
2022-09-23T10:30:23.779Z,2.60
2022-09-23T10:32:52.371Z,2.28
2022-09-23T10:35:24.656Z,2.55
2022-09-23T10:37:56.271Z,2.28
2022-09-23T10:41:02.409Z,2.15
2022-09-23T10:44:22.714Z,2.20
2022-09-23T10:47:35.240Z,2.90
2022-09-23T10:50:29.077Z,2.20
2022-09-23T10:53:11.949Z,2.00
2022-09-23T10:55:45.896Z,2.13
2022-09-23T10:58:20.686Z,2.20
2022-09-23T11:01:13.666Z,1.98
2022-09-23T11:04:12.425Z,2.08
2022-09-23T11:06:53.275Z,1.83
2022-09-23T11:09:20.208Z,1.75
2022-09-23T11:12:07.800Z,1.95
2022-09-23T11:15:21.212Z,1.75
2022-09-23T11:18:19.699Z,1.83
2022-09-23T11:21:01.679Z,1.77
2022-09-23T11:23:58.273Z,1.70
2022-09-23T11:26:41.954Z,1.75
2022-09-23T11:29:19.963Z,1.67
2022-09-23T11:32:28.478Z,1.70
2022-09-23T11:35:23.003Z,2.00
2022-09-23T11:38:02.214Z,1.90
2022-09-23T11:40:34.378Z,1.83
2022-09-23T11:43:07.640Z,1.88
2022-09-23T11:45:37.760Z,2.00
2022-09-23T11:48:12.221Z,1.83
2022-09-23T11:50:45.192Z,1.60
2022-09-23T11:53:23.175Z,1.73
2022-09-23T11:55:58.489Z,1.70
2022-09-23T11:58:30.240Z,1.80
2022-09-23T12:01:07.742Z,1.90
2022-09-23T12:03:55.869Z,2.05
2022-09-23T12:06:27.364Z,1.90
2022-09-23T12:08:59.529Z,1.85
2022-09-23T12:11:47.353Z,1.70
2022-09-23T12:14:40.680Z,1.65
2022-09-23T12:17:38.158Z,1.80
2022-09-23T12:20:44.292Z,1.70
2022-09-23T12:23:43.778Z,1.92
2022-09-23T12:26:18.648Z,1.77
2022-09-23T12:28:47.088Z,1.70
2022-09-23T12:31:23.378Z,1.73
2022-09-23T12:33:51.576Z,1.52
2022-09-23T12:36:26.687Z,1.63
2022-09-23T12:39:03.791Z,1.75
2022-09-23T12:41:37.978Z,1.30
2022-09-23T12:44:12.103Z,1.60
2022-09-23T12:46:40.030Z,1.60
2022-09-23T12:49:23.653Z,1.50
2022-09-23T12:52:18.743Z,1.50
2022-09-23T12:54:47.123Z,1.85
2022-09-23T12:57:50.856Z,1.73
2022-09-23T13:00:28.095Z,1.58
2022-09-23T13:03:17.446Z,1.50
2022-09-23T13:06:06.631Z,1.42
2022-09-23T13:08:36.680Z,1.90
2022-09-23T13:11:06.442Z,1.40
2022-09-23T13:13:36.567Z,1.30
2022-09-23T13:16:26.290Z,1.30
2022-09-23T13:18:57.120Z,1.52
2022-09-23T13:22:03.749Z,1.35
2022-09-23T13:24:42.578Z,1.30
2022-09-23T13:27:20.129Z,1.30
2022-09-23T13:29:52.046Z,1.30
2022-09-23T13:32:21.318Z,1.50
2022-09-23T13:34:58.287Z,1.42
2022-09-23T13:37:47.799Z,1.50
2022-09-23T13:40:27.080Z,1.20
2022-09-23T13:43:03.404Z,1.70
2022-09-23T13:45:34.381Z,1.33
2022-09-23T13:48:12.081Z,1.65
2022-09-23T13:50:41.387Z,1.38
2022-09-23T13:53:11.096Z,1.40
2022-09-23T13:55:39.408Z,1.63
2022-09-23T13:58:17.790Z,1.35
2022-09-23T14:00:45.121Z,1.50
2022-09-23T14:03:36.196Z,1.40
2022-09-23T14:06:11.769Z,1.30
2022-09-23T14:08:39.406Z,1.50
2022-09-23T14:11:06.531Z,1.38
2022-09-23T14:13:40.612Z,1.40
2022-09-23T14:16:10.436Z,1.23
2022-09-23T14:18:44.551Z,1.15
2022-09-23T14:21:37.237Z,1.05
2022-09-23T14:24:29.617Z,1.40
2022-09-23T14:27:14.236Z,1.60
2022-09-23T14:29:44.320Z,1.50
2022-09-23T14:32:18.647Z,1.52
2022-09-23T14:35:18.871Z,1.50
2022-09-23T14:38:07.078Z,1.52
2022-09-23T14:40:36.214Z,1.60
2022-09-23T14:43:24.393Z,1.80
2022-09-23T14:45:53.163Z,1.50
2022-09-23T14:48:33.590Z,1.40
2022-09-23T14:51:03.095Z,1.65
2022-09-23T14:53:41.461Z,1.60
2022-09-23T14:56:21.949Z,1.63
2022-09-23T14:58:54.670Z,1.60
2022-09-23T15:01:36.096Z,1.67
2022-09-23T15:04:16.788Z,1.50
2022-09-23T15:06:49.510Z,1.27
2022-09-23T15:09:21.121Z,1.63
2022-09-23T15:11:48.389Z,1.30
2022-09-23T15:14:36.701Z,1.30
2022-09-23T15:17:03.981Z,1.40
2022-09-23T15:19:31.771Z,1.58
2022-09-23T15:21:58.581Z,1.30
2022-09-23T15:24:40.847Z,2.05
2022-09-23T15:27:26.310Z,1.75
2022-09-23T15:29:56.244Z,1.50
2022-09-23T15:32:22.980Z,1.45
2022-09-23T15:34:50.925Z,2.00
2022-09-23T15:37:24.387Z,1.67
2022-09-23T15:39:54.426Z,1.90
2022-09-23T15:42:21.537Z,2.05
2022-09-23T15:44:49.592Z,3.20
2022-09-23T15:47:18.948Z,3.88
2022-09-23T15:49:48.663Z,4.50
2022-09-23T15:52:16.292Z,3.50
2022-09-23T15:54:44.343Z,4.00
2022-09-23T15:57:11.630Z,3.13
2022-09-23T15:59:38.381Z,1.90
2022-09-23T16:02:20.453Z,1.52
2022-09-23T16:04:50.434Z,1.50
2022-09-23T16:07:17.286Z,1.33
2022-09-23T16:09:43.961Z,1.90
2022-09-23T16:12:12.085Z,1.55
2022-09-23T16:14:38.749Z,1.60
2022-09-23T16:17:05.671Z,1.70
2022-09-23T16:19:34.406Z,1.75
2022-09-23T16:22:01.203Z,1.63
2022-09-23T16:24:28.410Z,1.48
2022-09-23T16:27:00.065Z,1.70
2022-09-23T16:29:27.782Z,1.55
2022-09-23T16:31:55.814Z,1.77
2022-09-23T16:34:22.814Z,5.65
2022-09-23T16:36:49.616Z,4.20
2022-09-23T16:39:16.324Z,4.03
2022-09-23T16:41:43.762Z,3.47
2022-09-23T16:44:12.686Z,3.28
2022-09-23T16:46:43.003Z,4.40
2022-09-23T16:49:12.242Z,4.60
2022-09-23T16:51:40.027Z,4.78
2022-09-23T16:54:10.465Z,3.10
2022-09-23T16:56:39.316Z,2.95
2022-09-23T16:59:06.253Z,3.30
2022-09-23T17:01:51.793Z,2.63
2022-09-23T17:04:19.704Z,2.50
2022-09-23T17:06:50.798Z,5.40
2022-09-23T17:09:19.083Z,6.00
2022-09-23T17:11:48.733Z,5.68
2022-09-23T17:14:16.201Z,5.10
2022-09-23T17:16:43.274Z,3.20
2022-09-23T17:19:11.811Z,2.80
2022-09-23T17:21:39.351Z,2.90
2022-09-23T17:24:06.531Z,2.95
2022-09-23T17:26:33.242Z,3.00
2022-09-23T17:29:02.175Z,2.50
2022-09-23T17:31:29.690Z,2.65
2022-09-23T17:33:56.593Z,3.15
2022-09-23T17:36:23.467Z,2.30
2022-09-23T17:38:54.065Z,2.00
2022-09-23T17:41:21.169Z,1.80
2022-09-23T17:43:48.592Z,1.77
2022-09-23T17:46:18.341Z,2.80
2022-09-23T17:48:45.485Z,3.55
2022-09-23T17:51:16.099Z,3.80
2022-09-23T17:53:45.614Z,4.03
2022-09-23T17:56:26.522Z,3.55
2022-09-23T17:58:53.913Z,5.30
2022-09-23T18:01:23.946Z,4.47
2022-09-23T18:04:00.967Z,2.90
2022-09-23T18:06:29.722Z,2.97
2022-09-23T18:08:56.540Z,2.50
2022-09-23T18:11:25.402Z,2.40
2022-09-23T18:13:57.701Z,2.20
2022-09-23T18:16:27.066Z,1.90
2022-09-23T18:18:55.603Z,1.60
2022-09-23T18:21:24.887Z,1.60
2022-09-23T18:23:51.606Z,1.80
2022-09-23T18:26:21.057Z,2.03
2022-09-23T18:28:48.487Z,1.95
2022-09-23T18:31:17.207Z,1.90
2022-09-23T18:33:48.434Z,1.80
2022-09-23T18:36:15.133Z,1.80
2022-09-23T18:38:41.956Z,1.70
2022-09-23T18:41:09.564Z,1.98
2022-09-23T18:43:41.314Z,1.75
2022-09-23T18:46:17.289Z,2.22
2022-09-23T18:49:03.195Z,2.08
2022-09-23T18:51:30.422Z,1.95
2022-09-23T18:53:58.740Z,1.98
2022-09-23T18:56:42.252Z,1.80
2022-09-23T18:59:13.089Z,2.00
2022-09-23T19:01:39.906Z,2.03
2022-09-23T19:04:07.460Z,2.10
2022-09-23T19:06:35.264Z,2.10
2022-09-23T19:09:02.328Z,2.10
2022-09-23T19:11:29.073Z,2.35
2022-09-23T19:14:02.227Z,2.13
2022-09-23T19:16:31.870Z,1.90
2022-09-23T19:19:00.076Z,1.90
2022-09-23T19:21:27.860Z,2.15
2022-09-23T19:23:56.954Z,2.03
2022-09-23T19:26:26.421Z,2.40
2022-09-23T19:28:57.335Z,2.28
2022-09-23T19:31:27.155Z,2.38
2022-09-23T19:33:56.710Z,5.50
2022-09-23T19:36:31.315Z,5.10
2022-09-23T19:39:04.114Z,5.47
2022-09-23T19:41:32.661Z,4.90
2022-09-23T19:44:03.505Z,4.10
2022-09-23T19:46:31.300Z,2.58
2022-09-23T19:48:58.914Z,2.30
2022-09-23T19:51:25.782Z,2.60
2022-09-23T19:53:52.846Z,3.78
2022-09-23T19:56:20.228Z,4.93
2022-09-23T19:58:48.744Z,3.85
2022-09-23T20:01:16.446Z,4.00
2022-09-23T20:03:47.250Z,3.30
2022-09-23T20:06:15.051Z,3.00
2022-09-23T20:08:42.373Z,2.65
2022-09-23T20:11:11.365Z,2.45
2022-09-23T20:13:42.741Z,3.05
2022-09-23T20:16:12.194Z,2.90
2022-09-23T20:18:39.317Z,2.65
2022-09-23T20:21:06.915Z,2.50
2022-09-23T20:23:34.428Z,2.42
2022-09-23T20:26:20.716Z,2.90
2022-09-23T20:28:48.075Z,3.53
2022-09-23T20:31:15.561Z,4.55
2022-09-23T20:33:42.323Z,3.22
2022-09-23T20:36:15.713Z,3.72
2022-09-23T20:38:42.434Z,4.40
2022-09-23T20:41:09.545Z,3.85
2022-09-23T20:43:36.611Z,3.45
2022-09-23T20:46:05.515Z,2.97
2022-09-23T20:48:32.416Z,3.20
2022-09-23T20:51:03.758Z,3.15
2022-09-23T20:53:31.301Z,3.25
2022-09-23T20:55:58.814Z,3.70
2022-09-23T20:58:30.185Z,4.30
2022-09-23T21:01:01.936Z,3.63
2022-09-23T21:03:32.090Z,2.95
2022-09-23T21:06:03.658Z,3.10
2022-09-23T21:08:31.465Z,3.72
2022-09-23T21:10:59.100Z,3.20
2022-09-23T21:13:26.045Z,3.40
2022-09-23T21:15:52.761Z,3.00
2022-09-23T21:18:22.499Z,3.35
2022-09-23T21:20:59.967Z,3.13
2022-09-23T21:23:32.747Z,3.30
2022-09-23T21:26:03.777Z,3.28
2022-09-23T21:28:32.312Z,3.38
2022-09-23T21:31:04.323Z,3.50
2022-09-23T21:33:31.260Z,3.20
2022-09-23T21:36:03.757Z,3.25
2022-09-23T21:38:31.440Z,3.30
2022-09-23T21:40:59.534Z,3.00
2022-09-23T21:43:33.650Z,3.42
2022-09-23T21:46:06.187Z,3.20
2022-09-23T21:48:37.503Z,3.15
2022-09-23T21:51:09.263Z,4.05
2022-09-23T21:53:39.871Z,4.70
2022-09-23T21:56:20.445Z,5.25
2022-09-23T21:58:47.888Z,5.72
2022-09-23T22:01:19.821Z,5.70
2022-09-23T22:03:52.007Z,5.25
2022-09-23T22:06:21.614Z,4.80
2022-09-23T22:08:54.871Z,4.60
2022-09-23T22:11:41.885Z,4.40
2022-09-23T22:14:11.006Z,3.97
2022-09-23T22:16:37.811Z,4.10
2022-09-23T22:19:07.969Z,4.15
2022-09-23T22:21:36.783Z,3.60
2022-09-23T22:24:04.960Z,4.00
2022-09-23T22:26:33.940Z,4.47
2022-09-23T22:29:19.460Z,4.32
2022-09-23T22:32:04.804Z,3.88
2022-09-23T22:34:48.969Z,4.00
2022-09-23T22:37:18.319Z,4.47
2022-09-23T22:39:45.317Z,5.10
2022-09-23T22:42:13.280Z,4.30
2022-09-23T22:44:40.100Z,5.00
2022-09-23T22:47:07.044Z,5.18
2022-09-23T22:49:34.057Z,6.35
2022-09-23T22:52:04.324Z,6.40
2022-09-23T22:54:34.021Z,5.90
2022-09-23T22:57:03.399Z,5.75
2022-09-23T22:59:30.286Z,6.00
2022-09-23T23:01:57.692Z,5.80
2022-09-23T23:04:24.749Z,5.22
2022-09-23T23:06:51.715Z,5.47
2022-09-23T23:09:19.326Z,5.40
2022-09-23T23:11:46.156Z,5.45
2022-09-23T23:14:15.377Z,4.75
2022-09-23T23:16:42.652Z,4.85
2022-09-23T23:19:13.366Z,5.10
2022-09-23T23:21:43.499Z,4.35
2022-09-23T23:24:20.039Z,4.25
2022-09-23T23:26:47.224Z,4.40
2022-09-23T23:29:15.479Z,4.18
2022-09-23T23:31:42.151Z,4.65
2022-09-23T23:34:12.542Z,4.40
2022-09-23T23:36:39.616Z,4.85
2022-09-23T23:39:07.759Z,4.53
2022-09-23T23:41:34.523Z,4.47
2022-09-23T23:44:01.759Z,4.55
2022-09-23T23:46:30.206Z,4.40
2022-09-23T23:48:57.796Z,4.28
2022-09-23T23:51:28.062Z,4.78
2022-09-23T23:53:55.210Z,4.30
2022-09-23T23:56:23.791Z,4.45
2022-09-23T23:58:57.300Z,4.57
